createdAt,value
2023-12-29T00:00:20.957Z,71.73
2023-12-29T00:00:42.088Z,71.67
2023-12-29T00:01:03.277Z,71.70
2023-12-29T00:01:24.461Z,71.70
2023-12-29T00:01:45.706Z,71.69
2023-12-29T00:02:06.797Z,71.71
2023-12-29T00:02:27.861Z,71.70
2023-12-29T00:02:48.979Z,71.71
2023-12-29T00:03:10.228Z,71.68
2023-12-29T00:03:31.375Z,71.71
2023-12-29T00:03:52.637Z,71.71
2023-12-29T00:04:13.892Z,71.72
2023-12-29T00:04:35.011Z,71.69
2023-12-29T00:04:56.134Z,71.66
2023-12-29T00:05:17.270Z,71.67
2023-12-29T00:05:38.440Z,71.72
2023-12-29T00:05:59.541Z,71.69
2023-12-29T00:06:20.592Z,71.70
2023-12-29T00:06:49.886Z,71.68
2023-12-29T00:07:08.663Z,71.71
2023-12-29T00:07:29.747Z,71.72
2023-12-29T00:07:50.934Z,71.67
2023-12-29T00:08:12.045Z,71.72
2023-12-29T00:08:33.090Z,71.67
2023-12-29T00:08:54.206Z,71.66
2023-12-29T00:09:15.362Z,71.71
2023-12-29T00:09:36.532Z,71.70
2023-12-29T00:09:57.674Z,71.65
2023-12-29T00:10:18.858Z,71.69
2023-12-29T00:10:40.077Z,71.68
2023-12-29T00:11:01.187Z,71.69
2023-12-29T00:11:22.282Z,71.71
2023-12-29T00:11:43.327Z,71.71
2023-12-29T00:12:04.394Z,71.69
2023-12-29T00:12:25.456Z,71.68
2023-12-29T00:12:46.539Z,71.65
2023-12-29T00:13:07.808Z,71.59
2023-12-29T00:13:28.891Z,71.62
2023-12-29T00:13:49.956Z,71.60
2023-12-29T00:14:11.039Z,71.65
2023-12-29T00:14:32.116Z,71.64
2023-12-29T00:14:53.227Z,71.61
2023-12-29T00:15:14.556Z,71.60
2023-12-29T00:15:35.701Z,71.58
2023-12-29T00:15:56.784Z,71.63
2023-12-29T00:16:17.836Z,71.58
2023-12-29T00:16:38.913Z,71.56
2023-12-29T00:16:59.983Z,71.54
2023-12-29T00:17:21.105Z,71.52
2023-12-29T00:17:42.955Z,71.50
2023-12-29T00:18:04.734Z,71.48
2023-12-29T00:18:26.043Z,71.48
2023-12-29T00:18:47.375Z,71.48
2023-12-29T00:19:08.665Z,71.47
2023-12-29T00:19:29.844Z,71.51
2023-12-29T00:19:51.004Z,71.47
2023-12-29T00:20:12.921Z,71.45
2023-12-29T00:20:41.235Z,71.47
2023-12-29T00:21:06.658Z,71.52
2023-12-29T00:21:28.120Z,71.54
2023-12-29T00:21:49.209Z,71.49
2023-12-29T00:22:10.378Z,71.49
2023-12-29T00:22:31.467Z,71.47
2023-12-29T00:22:52.580Z,71.46
2023-12-29T00:23:13.641Z,71.48
2023-12-29T00:23:34.704Z,71.43
2023-12-29T00:23:55.759Z,71.38
2023-12-29T00:24:16.834Z,71.38
2023-12-29T00:24:37.956Z,71.35
2023-12-29T00:24:59.094Z,71.32
2023-12-29T00:25:20.255Z,71.34
2023-12-29T00:25:41.357Z,71.34
2023-12-29T00:26:02.461Z,71.30
2023-12-29T00:26:23.531Z,71.31
2023-12-29T00:26:44.596Z,71.30
2023-12-29T00:27:05.658Z,71.29
2023-12-29T00:27:26.746Z,71.26
2023-12-29T00:27:47.825Z,71.32
2023-12-29T00:28:08.898Z,71.27
2023-12-29T00:28:29.971Z,71.26
2023-12-29T00:28:51.039Z,71.26
2023-12-29T00:29:12.097Z,71.25
2023-12-29T00:29:33.196Z,71.22
2023-12-29T00:29:54.230Z,71.21
2023-12-29T00:30:15.378Z,71.23
2023-12-29T00:30:47.926Z,71.22
2023-12-29T00:31:04.357Z,71.25
2023-12-29T00:31:26.781Z,71.21
2023-12-29T00:31:47.924Z,71.20
2023-12-29T00:32:09.144Z,71.20
2023-12-29T00:32:30.253Z,71.13
2023-12-29T00:32:51.371Z,71.15
2023-12-29T00:33:12.484Z,71.12
2023-12-29T00:33:33.791Z,71.09
2023-12-29T00:33:54.959Z,71.09
2023-12-29T00:34:16.128Z,71.05
2023-12-29T00:34:37.364Z,71.02
2023-12-29T00:34:58.492Z,71.00
2023-12-29T00:35:19.577Z,71.01
2023-12-29T00:35:40.632Z,70.97
2023-12-29T00:36:01.706Z,70.99
2023-12-29T00:36:22.840Z,70.93
2023-12-29T00:36:44.144Z,70.93
2023-12-29T00:37:05.228Z,70.93
2023-12-29T00:37:26.261Z,70.86
2023-12-29T00:37:47.341Z,70.89
2023-12-29T00:38:08.406Z,70.90
2023-12-29T00:38:29.686Z,70.87
2023-12-29T00:38:50.758Z,70.82
2023-12-29T00:39:11.820Z,70.81
2023-12-29T00:39:33.097Z,70.79
2023-12-29T00:39:54.250Z,70.75
2023-12-29T00:40:15.443Z,70.71
2023-12-29T00:40:36.557Z,70.69
2023-12-29T00:40:57.674Z,70.65
2023-12-29T00:41:18.731Z,70.60
2023-12-29T00:41:40.016Z,70.60
2023-12-29T00:42:01.297Z,70.57
2023-12-29T00:42:22.393Z,70.58
2023-12-29T00:42:43.484Z,70.54
2023-12-29T00:43:04.560Z,70.49
2023-12-29T00:43:25.697Z,70.46
2023-12-29T00:43:46.795Z,70.47
2023-12-29T00:44:07.851Z,70.43
2023-12-29T00:44:28.950Z,70.46
2023-12-29T00:44:50.004Z,70.39
2023-12-29T00:45:11.055Z,70.36
2023-12-29T00:45:32.151Z,70.28
2023-12-29T00:45:53.202Z,70.35
2023-12-29T00:46:14.400Z,70.37
2023-12-29T00:46:35.511Z,70.26
2023-12-29T00:46:56.627Z,70.24
2023-12-29T00:47:17.795Z,70.15
2023-12-29T00:47:38.898Z,70.13
2023-12-29T00:48:00.354Z,70.05
2023-12-29T00:48:21.652Z,69.97
2023-12-29T00:48:42.936Z,69.98
2023-12-29T00:49:04.322Z,69.94
2023-12-29T00:49:26.181Z,69.87
2023-12-29T00:49:47.341Z,69.84
2023-12-29T00:50:08.402Z,69.82
2023-12-29T00:50:29.720Z,69.75
2023-12-29T00:50:50.795Z,69.76
2023-12-29T00:51:11.863Z,69.77
2023-12-29T00:51:32.951Z,69.71
2023-12-29T00:51:54.043Z,69.76
2023-12-29T00:52:15.381Z,69.68
2023-12-29T00:52:36.486Z,69.68
2023-12-29T00:52:57.538Z,69.68
2023-12-29T00:53:18.594Z,69.69
2023-12-29T00:53:39.689Z,69.67
2023-12-29T00:54:00.781Z,69.61
2023-12-29T00:54:21.876Z,69.54
2023-12-29T00:54:43.036Z,69.52
2023-12-29T00:55:04.590Z,69.50
2023-12-29T00:55:25.787Z,69.50
2023-12-29T00:55:46.893Z,69.51
2023-12-29T00:56:07.961Z,69.53
2023-12-29T00:56:29.031Z,69.53
2023-12-29T00:56:50.111Z,69.52
2023-12-29T00:57:11.170Z,69.49
2023-12-29T00:57:32.468Z,69.54
2023-12-29T00:57:53.758Z,69.49
2023-12-29T00:58:14.880Z,69.44
2023-12-29T00:58:35.938Z,69.42
2023-12-29T00:58:56.993Z,69.44
2023-12-29T00:59:18.075Z,69.46
2023-12-29T00:59:39.127Z,69.45
2023-12-29T01:00:00.306Z,69.43
2023-12-29T01:00:21.358Z,69.44
2023-12-29T01:00:42.569Z,69.49
2023-12-29T01:01:03.691Z,69.52
2023-12-29T01:01:24.869Z,69.49
2023-12-29T01:01:46.273Z,69.47
2023-12-29T01:02:07.451Z,69.43
2023-12-29T01:02:28.525Z,69.41
2023-12-29T01:02:49.789Z,69.36
2023-12-29T01:03:10.900Z,69.32
2023-12-29T01:03:32.026Z,69.35
2023-12-29T01:03:53.137Z,69.34
2023-12-29T01:04:14.389Z,69.34
2023-12-29T01:04:35.726Z,69.34
2023-12-29T01:04:56.993Z,69.33
2023-12-29T01:05:18.143Z,69.35
2023-12-29T01:05:39.286Z,69.38
2023-12-29T01:06:00.357Z,69.38
2023-12-29T01:06:21.405Z,69.35
2023-12-29T01:06:42.511Z,69.32
2023-12-29T01:07:04.203Z,69.29
2023-12-29T01:07:25.258Z,69.27
2023-12-29T01:07:46.360Z,69.23
2023-12-29T01:08:07.632Z,69.25
2023-12-29T01:08:28.772Z,69.20
2023-12-29T01:08:49.842Z,69.19
2023-12-29T01:09:10.909Z,69.20
2023-12-29T01:09:32.022Z,69.21
2023-12-29T01:09:53.066Z,69.25
2023-12-29T01:10:14.284Z,69.26
2023-12-29T01:10:35.383Z,69.27
2023-12-29T01:10:56.467Z,69.36
2023-12-29T01:11:17.583Z,69.33
2023-12-29T01:11:38.621Z,69.27
2023-12-29T01:11:59.690Z,69.23
2023-12-29T01:12:20.770Z,69.30
2023-12-29T01:12:41.870Z,69.25
2023-12-29T01:13:02.974Z,69.26
2023-12-29T01:13:24.233Z,69.26
2023-12-29T01:13:45.504Z,69.27
2023-12-29T01:14:06.565Z,69.22
2023-12-29T01:14:27.636Z,69.20
2023-12-29T01:14:48.690Z,69.16
2023-12-29T01:15:09.826Z,69.15
2023-12-29T01:15:30.930Z,69.15
2023-12-29T01:15:52.127Z,69.19
2023-12-29T01:16:13.231Z,69.19
2023-12-29T01:16:34.360Z,69.25
2023-12-29T01:16:56.452Z,69.28
2023-12-29T01:17:18.365Z,69.32
2023-12-29T01:17:39.435Z,69.33
2023-12-29T01:18:00.879Z,69.27
2023-12-29T01:18:22.467Z,69.24
2023-12-29T01:18:43.816Z,69.23
2023-12-29T01:19:05.319Z,69.27
2023-12-29T01:19:26.512Z,69.29
2023-12-29T01:19:47.786Z,69.29
2023-12-29T01:20:08.969Z,69.29
2023-12-29T01:20:30.045Z,69.27
2023-12-29T01:20:51.123Z,69.22
2023-12-29T01:21:12.202Z,69.15
2023-12-29T01:21:33.282Z,69.20
2023-12-29T01:21:54.414Z,69.22
2023-12-29T01:22:15.675Z,69.17
2023-12-29T01:22:36.728Z,69.21
2023-12-29T01:22:57.800Z,69.19
2023-12-29T01:23:18.880Z,69.14
2023-12-29T01:23:39.956Z,69.18
2023-12-29T01:24:01.063Z,69.14
2023-12-29T01:24:26.812Z,69.18
2023-12-29T01:24:49.342Z,69.25
2023-12-29T01:25:10.473Z,69.21
2023-12-29T01:25:31.705Z,69.17
2023-12-29T01:25:52.809Z,69.13
2023-12-29T01:26:13.875Z,69.13
2023-12-29T01:26:34.935Z,69.13
2023-12-29T01:26:56.036Z,69.17
2023-12-29T01:27:17.127Z,69.15
2023-12-29T01:27:38.236Z,69.18
2023-12-29T01:27:59.347Z,69.20
2023-12-29T01:28:20.466Z,69.20
2023-12-29T01:28:41.784Z,69.23
2023-12-29T01:29:02.989Z,69.24
2023-12-29T01:29:24.256Z,69.23
2023-12-29T01:29:45.395Z,69.24
2023-12-29T01:30:06.457Z,69.28
2023-12-29T01:30:27.870Z,69.26
2023-12-29T01:30:48.977Z,69.23
2023-12-29T01:31:10.154Z,69.23
2023-12-29T01:31:31.470Z,69.21
2023-12-29T01:31:52.628Z,69.31
2023-12-29T01:32:13.697Z,69.25
2023-12-29T01:32:34.789Z,69.15
2023-12-29T01:32:55.860Z,69.12
2023-12-29T01:33:17.008Z,69.18
2023-12-29T01:33:38.109Z,69.19
2023-12-29T01:33:59.319Z,69.21
2023-12-29T01:34:20.520Z,69.21
2023-12-29T01:34:41.982Z,69.25
2023-12-29T01:35:03.160Z,69.23
2023-12-29T01:35:24.204Z,69.25
2023-12-29T01:35:45.269Z,69.23
2023-12-29T01:36:11.470Z,69.25
2023-12-29T01:36:33.374Z,69.31
2023-12-29T01:36:54.507Z,69.21
2023-12-29T01:37:15.626Z,69.15
2023-12-29T01:37:36.843Z,69.26
2023-12-29T01:37:58.345Z,69.26
2023-12-29T01:38:19.567Z,69.22
2023-12-29T01:38:40.644Z,69.14
2023-12-29T01:39:01.693Z,69.06
2023-12-29T01:39:22.963Z,69.06
2023-12-29T01:39:44.051Z,69.11
2023-12-29T01:40:05.296Z,69.15
2023-12-29T01:40:26.381Z,69.18
2023-12-29T01:40:47.418Z,69.12
2023-12-29T01:41:08.502Z,69.05
2023-12-29T01:41:29.567Z,69.03
2023-12-29T01:41:50.641Z,69.01
2023-12-29T01:42:11.711Z,68.94
2023-12-29T01:42:32.811Z,69.05
2023-12-29T01:42:53.922Z,69.01
2023-12-29T01:43:15.109Z,69.00
2023-12-29T01:43:36.183Z,69.05
2023-12-29T01:43:57.289Z,69.02
2023-12-29T01:44:18.358Z,68.99
2023-12-29T01:44:39.599Z,68.95
2023-12-29T01:45:00.839Z,68.97
2023-12-29T01:45:21.978Z,68.92
2023-12-29T01:45:52.003Z,68.94
2023-12-29T01:46:10.045Z,68.96
2023-12-29T01:46:31.152Z,68.98
2023-12-29T01:46:52.202Z,69.01
2023-12-29T01:47:13.265Z,69.02
2023-12-29T01:47:34.338Z,69.00
2023-12-29T01:47:55.501Z,69.04
2023-12-29T01:48:16.658Z,69.03
2023-12-29T01:48:37.844Z,69.06
2023-12-29T01:48:59.029Z,69.02
2023-12-29T01:49:20.200Z,68.98
2023-12-29T01:49:41.385Z,68.88
2023-12-29T01:50:02.749Z,68.84
2023-12-29T01:50:23.855Z,68.84
2023-12-29T01:50:44.965Z,68.74
2023-12-29T01:51:06.156Z,68.76
2023-12-29T01:51:27.463Z,68.75
2023-12-29T01:51:48.569Z,68.79
2023-12-29T01:52:09.824Z,68.78
2023-12-29T01:52:30.962Z,68.78
2023-12-29T01:52:52.082Z,68.80
2023-12-29T01:53:13.113Z,68.86
2023-12-29T01:53:39.658Z,68.82
2023-12-29T01:54:01.139Z,68.80
2023-12-29T01:54:22.232Z,68.79
2023-12-29T01:54:43.375Z,68.81
2023-12-29T01:55:04.978Z,68.78
2023-12-29T01:55:26.023Z,68.76
2023-12-29T01:55:47.087Z,68.69
2023-12-29T01:56:08.170Z,68.75
2023-12-29T01:56:29.236Z,68.74
2023-12-29T01:56:50.297Z,68.73
2023-12-29T01:57:11.361Z,68.70
2023-12-29T01:57:32.454Z,68.71
2023-12-29T01:57:53.512Z,68.65
2023-12-29T01:58:14.608Z,68.70
2023-12-29T01:58:35.710Z,68.65
2023-12-29T01:59:00.361Z,68.64
2023-12-29T01:59:26.275Z,68.65
2023-12-29T01:59:47.966Z,68.60
2023-12-29T02:00:09.082Z,68.63
2023-12-29T02:00:30.391Z,68.67
2023-12-29T02:00:51.575Z,68.65
2023-12-29T02:01:12.908Z,68.73
2023-12-29T02:01:34.148Z,68.67
2023-12-29T02:01:55.274Z,68.68
2023-12-29T02:02:16.376Z,68.69
2023-12-29T02:02:37.446Z,68.65
2023-12-29T02:02:58.518Z,68.62
2023-12-29T02:03:19.601Z,68.64
2023-12-29T02:03:40.778Z,68.65
2023-12-29T02:04:01.909Z,68.64
2023-12-29T02:04:23.086Z,68.62
2023-12-29T02:04:44.342Z,68.63
2023-12-29T02:05:05.595Z,68.60
2023-12-29T02:05:26.751Z,68.61
2023-12-29T02:05:47.897Z,68.60
2023-12-29T02:06:08.993Z,68.60
2023-12-29T02:06:30.078Z,68.61
2023-12-29T02:06:51.196Z,68.56
2023-12-29T02:07:12.391Z,68.55
2023-12-29T02:07:33.467Z,68.56
2023-12-29T02:07:54.698Z,68.57
2023-12-29T02:08:15.777Z,68.57
2023-12-29T02:08:36.833Z,68.53
2023-12-29T02:08:57.899Z,68.56
2023-12-29T02:09:18.965Z,68.55
2023-12-29T02:09:40.072Z,68.53
2023-12-29T02:10:01.226Z,68.55
2023-12-29T02:10:22.360Z,68.54
2023-12-29T02:10:43.577Z,68.56
2023-12-29T02:11:04.631Z,68.59
2023-12-29T02:11:25.684Z,68.66
2023-12-29T02:11:46.762Z,68.66
2023-12-29T02:12:07.811Z,68.56
2023-12-29T02:12:28.913Z,68.53
2023-12-29T02:12:50.013Z,68.55
2023-12-29T02:13:11.110Z,68.57
2023-12-29T02:13:32.145Z,68.50
2023-12-29T02:13:53.211Z,68.47
2023-12-29T02:14:14.273Z,68.46
2023-12-29T02:14:35.335Z,68.41
2023-12-29T02:14:56.413Z,68.29
2023-12-29T02:15:17.481Z,68.32
2023-12-29T02:15:38.617Z,68.30
2023-12-29T02:15:59.792Z,68.30
2023-12-29T02:16:20.909Z,68.30
2023-12-29T02:16:41.974Z,68.33
2023-12-29T02:17:03.055Z,68.33
2023-12-29T02:17:24.181Z,68.35
2023-12-29T02:17:45.413Z,68.38
2023-12-29T02:18:06.776Z,68.37
2023-12-29T02:18:28.151Z,68.38
2023-12-29T02:18:49.277Z,68.35
2023-12-29T02:19:10.396Z,68.29
2023-12-29T02:19:31.540Z,68.20
2023-12-29T02:19:52.716Z,68.19
2023-12-29T02:20:13.785Z,68.22
2023-12-29T02:20:34.903Z,68.16
2023-12-29T02:20:56.131Z,68.19
2023-12-29T02:21:17.231Z,68.22
2023-12-29T02:21:38.363Z,68.21
2023-12-29T02:21:59.450Z,68.15
2023-12-29T02:22:20.722Z,68.09
2023-12-29T02:22:41.809Z,68.16
2023-12-29T02:23:02.893Z,68.22
2023-12-29T02:23:23.933Z,68.14
2023-12-29T02:23:45.005Z,68.09
2023-12-29T02:24:06.080Z,67.98
2023-12-29T02:24:27.451Z,67.86
2023-12-29T02:24:48.724Z,67.87
2023-12-29T02:25:10.138Z,67.84
2023-12-29T02:25:31.248Z,67.84
2023-12-29T02:25:52.301Z,67.77
2023-12-29T02:26:13.575Z,67.80
2023-12-29T02:26:34.847Z,67.87
2023-12-29T02:26:55.920Z,67.93
2023-12-29T02:27:17.047Z,68.00
2023-12-29T02:27:38.093Z,67.97
2023-12-29T02:27:59.474Z,67.86
2023-12-29T02:28:20.754Z,67.85
2023-12-29T02:28:41.845Z,67.73
2023-12-29T02:29:02.907Z,67.75
2023-12-29T02:29:24.097Z,67.77
2023-12-29T02:29:45.180Z,67.84
2023-12-29T02:30:06.324Z,67.80
2023-12-29T02:30:27.580Z,67.78
2023-12-29T02:30:48.776Z,67.76
2023-12-29T02:31:10.006Z,67.76
2023-12-29T02:31:31.241Z,67.72
2023-12-29T02:31:52.539Z,67.69
2023-12-29T02:32:13.605Z,67.63
2023-12-29T02:32:34.715Z,67.65
2023-12-29T02:32:55.988Z,67.73
2023-12-29T02:33:17.283Z,67.80
2023-12-29T02:33:38.462Z,67.85
2023-12-29T02:33:59.780Z,67.81
2023-12-29T02:34:21.033Z,67.74
2023-12-29T02:34:42.409Z,67.72
2023-12-29T02:35:04.168Z,67.72
2023-12-29T02:35:25.324Z,67.73
2023-12-29T02:35:46.381Z,67.79
2023-12-29T02:36:07.487Z,67.79
2023-12-29T02:36:28.535Z,67.79
2023-12-29T02:36:49.834Z,67.77
2023-12-29T02:37:11.023Z,67.76
2023-12-29T02:37:32.077Z,67.74
2023-12-29T02:37:53.142Z,67.65
2023-12-29T02:38:14.226Z,67.59
2023-12-29T02:38:35.286Z,67.59
2023-12-29T02:38:56.368Z,67.58
2023-12-29T02:39:17.423Z,67.58
2023-12-29T02:39:38.583Z,67.59
2023-12-29T02:39:59.706Z,67.51
2023-12-29T02:40:20.821Z,67.51
2023-12-29T02:40:41.889Z,67.53
2023-12-29T02:41:03.459Z,67.55
2023-12-29T02:41:24.527Z,67.43
2023-12-29T02:41:45.645Z,67.40
2023-12-29T02:42:06.918Z,67.38
2023-12-29T02:42:28.082Z,67.41
2023-12-29T02:42:49.222Z,67.43
2023-12-29T02:43:10.459Z,67.44
2023-12-29T02:43:31.540Z,67.43
2023-12-29T02:43:52.616Z,67.46
2023-12-29T02:44:13.673Z,67.44
2023-12-29T02:44:34.738Z,67.37
2023-12-29T02:44:55.799Z,67.42
2023-12-29T02:45:16.883Z,67.49
2023-12-29T02:45:38.037Z,67.46
2023-12-29T02:45:59.093Z,67.44
2023-12-29T02:46:20.234Z,67.40
2023-12-29T02:46:41.327Z,67.34
2023-12-29T02:47:02.388Z,67.35
2023-12-29T02:47:23.514Z,67.32
2023-12-29T02:47:44.819Z,67.26
2023-12-29T02:48:06.552Z,67.25
2023-12-29T02:48:27.974Z,67.26
2023-12-29T02:48:49.280Z,67.31
2023-12-29T02:49:10.485Z,67.30
2023-12-29T02:49:31.620Z,67.31
2023-12-29T02:49:52.774Z,67.32
2023-12-29T02:50:13.871Z,67.35
2023-12-29T02:50:34.977Z,67.34
2023-12-29T02:50:56.046Z,67.31
2023-12-29T02:51:17.112Z,67.36
2023-12-29T02:51:38.209Z,67.28
2023-12-29T02:51:59.402Z,67.27
2023-12-29T02:52:20.517Z,67.12
2023-12-29T02:52:41.758Z,67.07
2023-12-29T02:53:03.035Z,67.08
2023-12-29T02:53:24.085Z,67.13
2023-12-29T02:53:45.202Z,67.15
2023-12-29T02:54:06.265Z,67.17
2023-12-29T02:54:27.336Z,67.17
2023-12-29T02:54:48.448Z,67.18
2023-12-29T02:55:09.579Z,67.16
2023-12-29T02:55:30.685Z,67.08
2023-12-29T02:55:51.741Z,67.10
2023-12-29T02:56:12.817Z,67.08
2023-12-29T02:56:33.883Z,67.02
2023-12-29T02:56:54.951Z,66.91
2023-12-29T02:57:16.028Z,66.93
2023-12-29T02:57:37.098Z,66.97
2023-12-29T02:57:58.739Z,66.90
2023-12-29T02:58:20.097Z,66.91
2023-12-29T02:58:41.405Z,66.98
2023-12-29T02:59:02.439Z,67.08
2023-12-29T02:59:23.508Z,67.07
2023-12-29T02:59:44.569Z,67.04
2023-12-29T03:00:06.114Z,67.02
2023-12-29T03:00:27.395Z,67.00
2023-12-29T03:00:48.551Z,67.00
2023-12-29T03:01:09.731Z,67.05
2023-12-29T03:01:30.938Z,67.02
2023-12-29T03:01:52.199Z,67.00
2023-12-29T03:02:13.354Z,67.04
2023-12-29T03:02:34.424Z,66.94
2023-12-29T03:02:55.522Z,66.88
2023-12-29T03:03:16.645Z,66.84
2023-12-29T03:03:37.879Z,66.82
2023-12-29T03:03:59.018Z,66.83
2023-12-29T03:04:20.146Z,66.74
2023-12-29T03:04:41.171Z,66.77
2023-12-29T03:05:02.277Z,66.73
2023-12-29T03:05:23.405Z,66.78
2023-12-29T03:05:44.471Z,66.79
2023-12-29T03:06:05.560Z,66.82
2023-12-29T03:06:26.595Z,66.87
2023-12-29T03:06:47.729Z,66.91
2023-12-29T03:07:08.908Z,66.96
2023-12-29T03:07:30.051Z,66.96
2023-12-29T03:07:51.115Z,67.01
2023-12-29T03:08:12.181Z,66.98
2023-12-29T03:08:33.457Z,66.92
2023-12-29T03:08:54.567Z,66.92
2023-12-29T03:09:15.664Z,66.91
2023-12-29T03:09:36.739Z,66.83
2023-12-29T03:09:57.811Z,66.81
2023-12-29T03:10:18.962Z,66.90
2023-12-29T03:10:40.046Z,66.88
2023-12-29T03:11:01.101Z,66.87
2023-12-29T03:11:22.180Z,66.81
2023-12-29T03:11:43.249Z,66.76
2023-12-29T03:12:04.335Z,66.74
2023-12-29T03:12:25.392Z,66.73
2023-12-29T03:12:46.536Z,66.69
2023-12-29T03:13:07.647Z,66.71
2023-12-29T03:13:29.499Z,66.79
2023-12-29T03:13:50.785Z,66.81
2023-12-29T03:14:12.065Z,66.86
2023-12-29T03:14:33.112Z,66.86
2023-12-29T03:14:54.183Z,66.91
2023-12-29T03:15:15.243Z,66.83
2023-12-29T03:15:36.337Z,66.80
2023-12-29T03:15:57.442Z,66.85
2023-12-29T03:16:18.566Z,66.87
2023-12-29T03:16:39.618Z,66.89
2023-12-29T03:17:00.689Z,66.94
2023-12-29T03:17:21.763Z,67.00
2023-12-29T03:17:42.861Z,66.96
2023-12-29T03:18:04.283Z,66.95
2023-12-29T03:18:25.656Z,66.94
2023-12-29T03:18:46.900Z,66.96
2023-12-29T03:19:08.303Z,67.01
2023-12-29T03:19:29.904Z,66.93
2023-12-29T03:19:51.047Z,67.00
2023-12-29T03:20:12.143Z,66.97
2023-12-29T03:20:33.210Z,66.99
2023-12-29T03:20:54.262Z,66.95
2023-12-29T03:21:15.336Z,66.97
2023-12-29T03:21:36.475Z,66.99
2023-12-29T03:21:57.562Z,66.99
2023-12-29T03:22:18.671Z,66.97
2023-12-29T03:22:39.726Z,67.01
2023-12-29T03:23:00.770Z,67.02
2023-12-29T03:23:21.871Z,67.04
2023-12-29T03:23:42.932Z,67.02
2023-12-29T03:24:04.013Z,67.02
2023-12-29T03:24:25.126Z,66.94
2023-12-29T03:24:46.274Z,66.95
2023-12-29T03:25:07.498Z,66.99
2023-12-29T03:25:28.600Z,67.02
2023-12-29T03:25:49.664Z,66.97
2023-12-29T03:26:10.744Z,66.92
2023-12-29T03:26:31.848Z,66.95
2023-12-29T03:26:52.943Z,66.98
2023-12-29T03:27:13.976Z,66.93
2023-12-29T03:27:35.106Z,66.93
2023-12-29T03:27:56.206Z,66.98
2023-12-29T03:28:17.330Z,66.96
2023-12-29T03:28:38.370Z,66.95
2023-12-29T03:28:59.452Z,66.94
2023-12-29T03:29:20.558Z,66.98
2023-12-29T03:29:41.868Z,66.96
2023-12-29T03:30:03.217Z,66.97
2023-12-29T03:30:24.435Z,66.90
2023-12-29T03:30:45.599Z,66.94
2023-12-29T03:31:07.188Z,66.95
2023-12-29T03:31:28.522Z,66.91
2023-12-29T03:31:49.672Z,66.91
2023-12-29T03:32:10.740Z,66.89
2023-12-29T03:32:31.841Z,66.87
2023-12-29T03:32:52.933Z,66.91
2023-12-29T03:33:14.085Z,66.99
2023-12-29T03:33:35.292Z,67.05
2023-12-29T03:33:56.599Z,67.08
2023-12-29T03:34:17.932Z,67.04
2023-12-29T03:34:39.241Z,67.06
2023-12-29T03:35:00.675Z,67.06
2023-12-29T03:35:21.973Z,67.08
2023-12-29T03:35:43.034Z,67.11
2023-12-29T03:36:04.491Z,67.13
2023-12-29T03:36:25.567Z,67.11
2023-12-29T03:36:46.631Z,67.09
2023-12-29T03:37:07.759Z,67.11
2023-12-29T03:37:28.790Z,67.08
2023-12-29T03:37:49.876Z,67.12
2023-12-29T03:38:10.924Z,67.14
2023-12-29T03:38:31.996Z,67.18
2023-12-29T03:38:53.079Z,67.25
2023-12-29T03:39:14.157Z,67.25
2023-12-29T03:39:35.253Z,67.27
2023-12-29T03:39:56.438Z,67.26
2023-12-29T03:40:17.765Z,67.30
2023-12-29T03:40:39.131Z,67.31
2023-12-29T03:41:00.195Z,67.28
2023-12-29T03:41:21.268Z,67.26
2023-12-29T03:41:42.349Z,67.24
2023-12-29T03:42:03.697Z,67.19
2023-12-29T03:42:24.759Z,67.19
2023-12-29T03:42:45.884Z,67.20
2023-12-29T03:43:07.108Z,67.20
2023-12-29T03:43:29.030Z,67.27
2023-12-29T03:43:50.098Z,67.18
2023-12-29T03:44:11.152Z,67.15
2023-12-29T03:44:32.217Z,67.13
2023-12-29T03:44:53.272Z,67.11
2023-12-29T03:45:14.350Z,67.14
2023-12-29T03:45:35.524Z,67.11
2023-12-29T03:45:56.672Z,67.12
2023-12-29T03:46:17.775Z,67.11
2023-12-29T03:46:38.821Z,67.10
2023-12-29T03:46:59.889Z,67.05
2023-12-29T03:47:20.959Z,67.04
2023-12-29T03:47:42.130Z,67.06
2023-12-29T03:48:04.305Z,67.04
2023-12-29T03:48:25.684Z,67.07
2023-12-29T03:48:46.950Z,67.09
2023-12-29T03:49:08.214Z,67.15
2023-12-29T03:49:29.437Z,67.15
2023-12-29T03:49:50.610Z,67.14
2023-12-29T03:50:11.696Z,67.17
2023-12-29T03:50:32.767Z,67.18
2023-12-29T03:50:53.967Z,67.18
2023-12-29T03:51:15.202Z,67.13
2023-12-29T03:51:36.314Z,67.13
2023-12-29T03:51:57.471Z,67.13
2023-12-29T03:52:18.555Z,67.13
2023-12-29T03:52:39.693Z,67.12
2023-12-29T03:53:00.750Z,67.08
2023-12-29T03:53:21.825Z,67.09
2023-12-29T03:53:42.892Z,67.08
2023-12-29T03:54:03.956Z,67.10
2023-12-29T03:54:25.029Z,67.10
2023-12-29T03:54:46.139Z,67.16
2023-12-29T03:55:07.282Z,67.12
2023-12-29T03:55:28.357Z,67.08
2023-12-29T03:55:49.414Z,67.13
2023-12-29T03:56:10.509Z,67.12
2023-12-29T03:56:31.620Z,67.06
2023-12-29T03:56:52.685Z,67.09
2023-12-29T03:57:13.771Z,67.14
2023-12-29T03:57:34.838Z,67.13
2023-12-29T03:57:55.924Z,67.10
2023-12-29T03:58:16.989Z,67.07
2023-12-29T03:58:38.112Z,67.05
2023-12-29T03:58:59.181Z,67.03
2023-12-29T03:59:20.245Z,66.99
2023-12-29T03:59:41.324Z,66.98
2023-12-29T04:00:02.397Z,66.99
2023-12-29T04:00:23.481Z,66.95
2023-12-29T04:00:44.615Z,66.95
2023-12-29T04:01:05.794Z,66.98
2023-12-29T04:01:27.934Z,66.97
2023-12-29T04:01:49.772Z,66.95
2023-12-29T04:02:10.868Z,67.02
2023-12-29T04:02:31.958Z,66.98
2023-12-29T04:02:53.008Z,66.99
2023-12-29T04:03:14.103Z,66.97
2023-12-29T04:03:35.178Z,67.03
2023-12-29T04:03:56.336Z,67.07
2023-12-29T04:04:17.437Z,67.08
2023-12-29T04:04:38.656Z,67.12
2023-12-29T04:04:59.884Z,67.13
2023-12-29T04:05:21.004Z,67.08
2023-12-29T04:05:42.076Z,67.08
2023-12-29T04:06:03.121Z,67.08
2023-12-29T04:06:24.190Z,67.15
2023-12-29T04:06:45.358Z,67.23
2023-12-29T04:07:27.732Z,67.23
2023-12-29T04:07:48.788Z,67.22
2023-12-29T04:08:09.862Z,67.17
2023-12-29T04:08:30.930Z,67.15
2023-12-29T04:08:52.002Z,67.15
2023-12-29T04:09:13.048Z,67.15
2023-12-29T04:09:34.220Z,67.24
2023-12-29T04:09:55.395Z,67.19
2023-12-29T04:10:16.446Z,67.17
2023-12-29T04:10:37.518Z,67.09
2023-12-29T04:10:58.573Z,67.10
2023-12-29T04:11:19.683Z,67.08
2023-12-29T04:11:40.757Z,67.06
2023-12-29T04:12:02.039Z,67.07
2023-12-29T04:12:23.301Z,67.09
2023-12-29T04:12:44.389Z,67.05
2023-12-29T04:13:05.500Z,67.03
2023-12-29T04:13:26.540Z,67.07
2023-12-29T04:13:47.594Z,67.01
2023-12-29T04:14:08.655Z,67.05
2023-12-29T04:14:29.740Z,67.01
2023-12-29T04:14:50.773Z,67.02
2023-12-29T04:15:11.835Z,67.03
2023-12-29T04:15:32.929Z,67.05
2023-12-29T04:15:54.050Z,67.04
2023-12-29T04:16:15.079Z,67.03
2023-12-29T04:16:36.143Z,67.01
2023-12-29T04:16:57.197Z,67.04
2023-12-29T04:17:18.484Z,67.00
2023-12-29T04:17:39.751Z,67.03
2023-12-29T04:18:01.291Z,66.99
2023-12-29T04:18:22.678Z,67.03
2023-12-29T04:18:43.905Z,67.05
2023-12-29T04:19:05.052Z,67.05
2023-12-29T04:19:26.152Z,67.04
2023-12-29T04:19:47.216Z,67.01
2023-12-29T04:20:08.285Z,67.03
2023-12-29T04:20:29.343Z,67.00
2023-12-29T04:20:50.393Z,66.93
2023-12-29T04:21:11.481Z,66.91
2023-12-29T04:21:32.580Z,66.90
2023-12-29T04:21:53.724Z,66.94
2023-12-29T04:22:14.761Z,66.94
2023-12-29T04:22:35.865Z,66.91
2023-12-29T04:22:57.141Z,66.95
2023-12-29T04:23:18.212Z,66.94
2023-12-29T04:23:39.273Z,66.97
2023-12-29T04:24:00.345Z,66.99
2023-12-29T04:24:21.416Z,67.00
2023-12-29T04:24:42.595Z,66.99
2023-12-29T04:25:03.664Z,67.05
2023-12-29T04:25:24.718Z,67.01
2023-12-29T04:25:45.782Z,67.00
2023-12-29T04:26:06.862Z,66.97
2023-12-29T04:26:28.305Z,66.98
2023-12-29T04:26:49.346Z,66.99
2023-12-29T04:27:10.425Z,67.01
2023-12-29T04:27:31.503Z,67.05
2023-12-29T04:27:52.804Z,67.00
2023-12-29T04:28:13.988Z,67.03
2023-12-29T04:28:35.054Z,67.03
2023-12-29T04:28:56.120Z,67.00
2023-12-29T04:29:17.196Z,67.03
2023-12-29T04:29:38.254Z,67.10
2023-12-29T04:29:59.315Z,67.10
2023-12-29T04:30:20.407Z,67.15
2023-12-29T04:30:41.504Z,67.17
2023-12-29T04:31:02.643Z,67.19
2023-12-29T04:31:23.819Z,67.15
2023-12-29T04:31:44.877Z,67.13
2023-12-29T04:32:05.931Z,67.08
2023-12-29T04:32:27.020Z,67.03
2023-12-29T04:32:48.072Z,67.04
2023-12-29T04:33:09.341Z,67.10
2023-12-29T04:33:30.621Z,67.05
2023-12-29T04:33:51.741Z,67.08